createdAt,value
2019-05-23T00:00:42.586Z,1004.10
2019-05-23T00:01:42.596Z,1004.05
2019-05-23T00:02:42.544Z,1004.06
2019-05-23T00:03:42.551Z,1004.04
2019-05-23T00:04:42.555Z,1004.06
2019-05-23T00:05:42.517Z,1004.04
2019-05-23T00:06:42.526Z,1004.02
2019-05-23T00:07:42.489Z,1003.99
2019-05-23T00:08:42.499Z,1003.99
2019-05-23T00:09:42.483Z,1004.03
2019-05-23T00:10:42.467Z,1003.96
2019-05-23T00:11:42.460Z,1004.01
2019-05-23T00:12:42.450Z,1004.02
2019-05-23T00:13:42.434Z,1004.01
2019-05-23T00:14:42.420Z,1003.98
2019-05-23T00:15:42.420Z,1003.98
2019-05-23T00:16:42.426Z,1004.02
2019-05-23T00:17:42.404Z,1004.03
2019-05-23T00:18:42.385Z,1003.98
2019-05-23T00:19:42.357Z,1004.00
2019-05-23T00:20:42.352Z,1004.00
2019-05-23T00:21:42.348Z,1004.02
2019-05-23T00:22:42.365Z,1004.00
2019-05-23T00:23:42.341Z,1004.01
2019-05-23T00:24:42.304Z,1003.99
2019-05-23T00:25:42.311Z,1004.01
2019-05-23T00:26:42.282Z,1003.97
2019-05-23T00:27:42.315Z,1004.00
2019-05-23T00:28:42.271Z,1003.95
2019-05-23T00:29:42.274Z,1004.03
2019-05-23T00:30:42.248Z,1003.96
2019-05-23T00:31:42.224Z,1003.99
2019-05-23T00:32:42.251Z,1003.95
2019-05-23T00:33:42.227Z,1003.97
2019-05-23T00:34:42.215Z,1003.99
2019-05-23T00:35:42.191Z,1004.01
2019-05-23T00:36:42.189Z,1003.95
2019-05-23T00:37:42.195Z,1003.94
2019-05-23T00:38:42.219Z,1003.98
2019-05-23T00:39:42.148Z,1003.94
2019-05-23T00:40:42.157Z,1004.00
2019-05-23T00:41:42.123Z,1003.94
2019-05-23T00:42:42.113Z,1003.92
2019-05-23T00:43:42.123Z,1003.93
2019-05-23T00:44:42.103Z,1003.92
2019-05-23T00:45:42.087Z,1003.93
2019-05-23T00:46:42.062Z,1003.99
2019-05-23T00:47:42.080Z,1003.90
2019-05-23T00:48:42.055Z,1003.96
2019-05-23T00:49:42.061Z,1003.99
2019-05-23T00:50:42.055Z,1003.98
2019-05-23T00:51:42.028Z,1003.97
2019-05-23T00:52:42.012Z,1003.96
2019-05-23T00:53:42.018Z,1003.98
2019-05-23T00:54:42.006Z,1003.99
2019-05-23T00:55:41.981Z,1004.03
2019-05-23T00:56:41.959Z,1003.99
2019-05-23T00:57:41.981Z,1004.03
2019-05-23T00:58:41.955Z,1003.99
2019-05-23T00:59:41.941Z,1004.01
2019-05-23T01:00:41.959Z,1004.00
2019-05-23T01:01:41.936Z,1004.01
2019-05-23T01:02:43.473Z,1003.98
2019-05-23T01:03:47.174Z,1003.99
2019-05-23T01:04:43.429Z,1003.96
2019-05-23T01:05:45.401Z,1004.05
2019-05-23T01:06:42.057Z,1003.96
2019-05-23T01:07:41.863Z,1004.00
2019-05-23T01:08:41.859Z,1003.94
2019-05-23T01:09:41.831Z,1003.98
2019-05-23T01:10:41.841Z,1004.03
2019-05-23T01:11:41.807Z,1003.99
2019-05-23T01:12:41.806Z,1003.99
2019-05-23T01:13:41.818Z,1004.05
2019-05-23T01:14:41.770Z,1004.06
2019-05-23T01:15:41.766Z,1004.00
2019-05-23T01:16:41.760Z,1003.95
2019-05-23T01:17:41.748Z,1003.96
2019-05-23T01:18:41.755Z,1003.95
2019-05-23T01:19:41.719Z,1003.95
2019-05-23T01:20:41.719Z,1003.92
2019-05-23T01:21:41.743Z,1003.94
2019-05-23T01:22:41.691Z,1003.97
2019-05-23T01:23:41.680Z,1003.98
2019-05-23T01:24:41.664Z,1003.97
2019-05-23T01:25:41.675Z,1003.92
2019-05-23T01:26:41.660Z,1003.92
2019-05-23T01:27:41.659Z,1003.96
2019-05-23T01:28:41.630Z,1003.92
2019-05-23T01:29:41.608Z,1003.92
2019-05-23T01:30:41.611Z,1003.93
2019-05-23T01:31:41.653Z,1003.95
2019-05-23T01:32:41.614Z,1003.93
2019-05-23T01:33:41.590Z,1003.92
2019-05-23T01:34:41.560Z,1003.91
2019-05-23T01:35:41.562Z,1003.90
2019-05-23T01:36:41.539Z,1003.91
2019-05-23T01:37:41.540Z,1003.89
2019-05-23T01:38:41.575Z,1003.90
2019-05-23T01:39:41.516Z,1003.88
2019-05-23T01:40:41.512Z,1003.89
2019-05-23T01:41:41.503Z,1003.86
2019-05-23T01:42:41.474Z,1003.88
2019-05-23T01:43:41.489Z,1003.87
2019-05-23T01:44:41.461Z,1003.89
2019-05-23T01:45:41.453Z,1003.90
2019-05-23T01:46:41.429Z,1003.92
2019-05-23T01:47:41.415Z,1003.85
2019-05-23T01:48:41.405Z,1003.95
2019-05-23T01:49:41.415Z,1003.89
2019-05-23T01:50:41.398Z,1003.93
2019-05-23T01:51:41.366Z,1003.90
2019-05-23T01:52:41.381Z,1003.91
2019-05-23T01:53:41.345Z,1003.90
2019-05-23T01:54:41.380Z,1003.88
2019-05-23T01:55:41.343Z,1003.90
2019-05-23T01:56:41.316Z,1003.89
2019-05-23T01:57:41.307Z,1003.85
2019-05-23T01:58:41.298Z,1003.89
2019-05-23T01:59:41.327Z,1003.91
2019-05-23T02:00:41.279Z,1003.89
2019-05-23T02:01:41.280Z,1003.85
2019-05-23T02:02:41.269Z,1003.89
2019-05-23T02:03:41.244Z,1003.87
2019-05-23T02:04:41.240Z,1003.83
2019-05-23T02:05:41.242Z,1003.83
2019-05-23T02:06:41.225Z,1003.83
2019-05-23T02:07:41.205Z,1003.79
2019-05-23T02:08:41.291Z,1003.79
2019-05-23T02:09:41.199Z,1003.81
2019-05-23T02:10:41.206Z,1003.75
2019-05-23T02:11:41.171Z,1003.73
2019-05-23T02:12:41.157Z,1003.77
2019-05-23T02:13:41.136Z,1003.73
2019-05-23T02:14:41.139Z,1003.74
2019-05-23T02:15:41.125Z,1003.71
2019-05-23T02:16:41.139Z,1003.75
2019-05-23T02:17:41.097Z,1003.70
2019-05-23T02:18:41.095Z,1003.68
2019-05-23T02:19:41.098Z,1003.66
2019-05-23T02:20:41.084Z,1003.71
2019-05-23T02:21:41.054Z,1003.71
2019-05-23T02:22:41.046Z,1003.70
2019-05-23T02:23:41.032Z,1003.71
2019-05-23T02:24:41.025Z,1003.73
2019-05-23T02:25:41.038Z,1003.66
2019-05-23T02:26:41.081Z,1003.69
2019-05-23T02:27:40.985Z,1003.69
2019-05-23T02:28:40.981Z,1003.67
2019-05-23T02:29:40.971Z,1003.68
2019-05-23T02:30:40.978Z,1003.70
2019-05-23T02:31:40.953Z,1003.67
2019-05-23T02:32:40.960Z,1003.76
2019-05-23T02:33:40.960Z,1003.65
2019-05-23T02:34:40.944Z,1003.65
2019-05-23T02:35:40.942Z,1003.68
2019-05-23T02:36:40.894Z,1003.70
2019-05-23T02:37:40.894Z,1003.64
2019-05-23T02:38:40.881Z,1003.61
2019-05-23T02:39:40.875Z,1003.62
2019-05-23T02:40:40.887Z,1003.56
2019-05-23T02:41:40.844Z,1003.62
2019-05-23T02:42:40.837Z,1003.59
2019-05-23T02:43:40.827Z,1003.61
2019-05-23T02:44:40.802Z,1003.62
2019-05-23T02:45:40.823Z,1003.61
2019-05-23T02:46:40.793Z,1003.64
2019-05-23T02:47:40.774Z,1003.63
2019-05-23T02:48:40.776Z,1003.66
2019-05-23T02:49:40.771Z,1003.65
2019-05-23T02:50:40.761Z,1003.62
2019-05-23T02:51:40.734Z,1003.61
2019-05-23T02:52:40.731Z,1003.61
2019-05-23T02:53:40.744Z,1003.63
2019-05-23T02:54:40.692Z,1003.64
2019-05-23T02:55:40.721Z,1003.68
2019-05-23T02:56:40.674Z,1003.69
2019-05-23T02:57:40.677Z,1003.67
2019-05-23T02:58:40.662Z,1003.64
2019-05-23T02:59:40.643Z,1003.60
2019-05-23T03:00:53.195Z,1003.63
2019-05-23T03:01:41.653Z,1003.61
2019-05-23T03:02:40.625Z,1003.62
2019-05-23T03:03:40.618Z,1003.58
2019-05-23T03:04:40.593Z,1003.57
2019-05-23T03:05:40.601Z,1003.56
2019-05-23T03:06:40.572Z,1003.56
2019-05-23T03:07:40.621Z,1003.54
2019-05-23T03:08:40.563Z,1003.52
2019-05-23T03:09:40.540Z,1003.49
2019-05-23T03:10:40.542Z,1003.49
2019-05-23T03:11:40.520Z,1003.49
2019-05-23T03:12:40.550Z,1003.48
2019-05-23T03:13:40.494Z,1003.45
2019-05-23T03:14:40.490Z,1003.44
2019-05-23T03:15:40.494Z,1003.43
2019-05-23T03:16:40.488Z,1003.40
2019-05-23T03:17:40.478Z,1003.48
2019-05-23T03:18:40.479Z,1003.43
2019-05-23T03:19:40.428Z,1003.44
2019-05-23T03:20:40.433Z,1003.46
2019-05-23T03:21:40.405Z,1003.43
2019-05-23T03:22:40.408Z,1003.44
2019-05-23T03:23:40.418Z,1003.41
2019-05-23T03:24:40.411Z,1003.40
2019-05-23T03:25:40.359Z,1003.40
2019-05-23T03:26:40.362Z,1003.38
2019-05-23T03:27:40.348Z,1003.39
2019-05-23T03:28:40.370Z,1003.37
2019-05-23T03:29:40.331Z,1003.38
2019-05-23T03:30:40.386Z,1003.39
2019-05-23T03:31:40.302Z,1003.37
2019-05-23T03:32:40.296Z,1003.38
2019-05-23T03:33:40.296Z,1003.37
2019-05-23T03:34:40.261Z,1003.39
2019-05-23T03:35:40.270Z,1003.34
2019-05-23T03:36:40.250Z,1003.32
2019-05-23T03:37:40.249Z,1003.33
2019-05-23T03:38:40.269Z,1003.35
2019-05-23T03:39:40.237Z,1003.34
2019-05-23T03:40:40.284Z,1003.33
2019-05-23T03:41:40.264Z,1003.33
2019-05-23T03:42:40.191Z,1003.34
2019-05-23T03:43:40.169Z,1003.35
2019-05-23T03:44:40.202Z,1003.33
2019-05-23T03:45:40.382Z,1003.29
2019-05-23T03:46:40.143Z,1003.31
2019-05-23T03:47:40.135Z,1003.31
2019-05-23T03:48:40.107Z,1003.34
2019-05-23T03:49:40.109Z,1003.31
2019-05-23T03:50:40.142Z,1003.32
2019-05-23T03:51:40.085Z,1003.32
2019-05-23T03:52:41.432Z,1003.31
2019-05-23T03:53:40.875Z,1003.33
2019-05-23T03:54:40.343Z,1003.31
2019-05-23T03:55:40.924Z,1003.28
2019-05-23T03:56:41.037Z,1003.28
2019-05-23T03:57:40.128Z,1003.28
2019-05-23T03:58:40.125Z,1003.29
2019-05-23T03:59:40.262Z,1003.28
2019-05-23T04:00:40.190Z,1003.31
2019-05-23T04:01:47.935Z,1003.28
2019-05-23T04:02:41.083Z,1003.27
2019-05-23T04:03:40.699Z,1003.17
2019-05-23T04:04:40.256Z,1003.17
2019-05-23T04:05:40.184Z,1003.17
2019-05-23T04:06:40.109Z,1003.17
2019-05-23T04:07:40.136Z,1003.17
2019-05-23T04:08:40.257Z,1003.17
2019-05-23T04:09:39.909Z,1003.19
2019-05-23T04:10:39.923Z,1003.21
2019-05-23T04:11:39.909Z,1003.22
2019-05-23T04:12:39.900Z,1003.19
2019-05-23T04:13:39.864Z,1003.22
2019-05-23T04:14:39.850Z,1003.24
2019-05-23T04:15:39.820Z,1003.26
2019-05-23T04:16:39.819Z,1003.28
2019-05-23T04:17:39.794Z,1003.26
2019-05-23T04:18:39.828Z,1003.28
2019-05-23T04:19:39.821Z,1003.30
2019-05-23T04:20:39.761Z,1003.29
2019-05-23T04:21:39.767Z,1003.27
2019-05-23T04:22:39.773Z,1003.27
2019-05-23T04:23:39.745Z,1003.25
2019-05-23T04:24:39.759Z,1003.26
2019-05-23T04:25:39.709Z,1003.19
2019-05-23T04:26:39.702Z,1003.21
2019-05-23T04:27:39.689Z,1003.25
2019-05-23T04:28:39.703Z,1003.21
2019-05-23T04:29:39.692Z,1003.19
2019-05-23T04:30:39.661Z,1003.21
2019-05-23T04:31:39.666Z,1003.23
2019-05-23T04:32:39.654Z,1003.24
2019-05-23T04:33:39.658Z,1003.25
2019-05-23T04:34:39.649Z,1003.27
2019-05-23T04:35:39.603Z,1003.27
2019-05-23T04:36:39.609Z,1003.28
2019-05-23T04:37:39.583Z,1003.28
2019-05-23T04:38:39.572Z,1003.24
2019-05-23T04:39:39.644Z,1003.22
2019-05-23T04:40:39.603Z,1003.26
2019-05-23T04:41:39.586Z,1003.21
2019-05-23T04:42:39.573Z,1003.15
2019-05-23T04:43:39.543Z,1003.21
2019-05-23T04:44:43.706Z,1003.23
2019-05-23T04:45:40.557Z,1003.22
2019-05-23T04:46:39.492Z,1003.21
2019-05-23T04:47:39.507Z,1003.18
2019-05-23T04:48:39.473Z,1003.21
2019-05-23T04:49:39.470Z,1003.19
2019-05-23T04:50:39.473Z,1003.22
2019-05-23T04:51:39.453Z,1003.24
2019-05-23T04:52:39.431Z,1003.25
2019-05-23T04:53:39.440Z,1003.27
2019-05-23T04:54:39.419Z,1003.26
2019-05-23T04:55:39.417Z,1003.20
2019-05-23T04:56:39.455Z,1003.25
2019-05-23T04:57:39.395Z,1003.23
2019-05-23T04:58:39.392Z,1003.23
2019-05-23T04:59:39.373Z,1003.23
2019-05-23T05:00:39.369Z,1003.26
2019-05-23T05:01:39.353Z,1003.28
2019-05-23T05:02:39.314Z,1003.28
2019-05-23T05:03:40.688Z,1003.31
2019-05-23T05:04:43.522Z,1003.27
2019-05-23T05:05:40.212Z,1003.32
2019-05-23T05:06:39.869Z,1003.30
2019-05-23T05:07:39.670Z,1003.26
2019-05-23T05:08:39.272Z,1003.28
2019-05-23T05:09:39.268Z,1003.24
2019-05-23T05:10:39.246Z,1003.23
2019-05-23T05:11:39.237Z,1003.19
2019-05-23T05:12:39.228Z,1003.20
2019-05-23T05:13:39.310Z,1003.21
2019-05-23T05:14:39.189Z,1003.23
2019-05-23T05:15:39.179Z,1003.27
2019-05-23T05:16:39.192Z,1003.25
2019-05-23T05:17:39.157Z,1003.30
2019-05-23T05:18:39.422Z,1003.26
2019-05-23T05:19:39.128Z,1003.29
2019-05-23T05:20:39.144Z,1003.32
2019-05-23T05:21:39.174Z,1003.25
2019-05-23T05:22:39.145Z,1003.28
2019-05-23T05:23:39.109Z,1003.31
2019-05-23T05:24:40.273Z,1003.30
2019-05-23T05:25:39.080Z,1003.35
2019-05-23T05:26:39.089Z,1003.32
2019-05-23T05:27:39.129Z,1003.29
2019-05-23T05:28:39.054Z,1003.33
2019-05-23T05:29:39.057Z,1003.34
2019-05-23T05:30:39.054Z,1003.30
2019-05-23T05:31:39.022Z,1003.28
2019-05-23T05:32:45.000Z,1003.31
2019-05-23T05:33:39.996Z,1003.32
2019-05-23T05:34:39.012Z,1003.26
2019-05-23T05:35:38.976Z,1003.27
2019-05-23T05:36:38.977Z,1003.32
2019-05-23T05:37:39.006Z,1003.30
2019-05-23T05:38:38.996Z,1003.34
2019-05-23T05:39:38.999Z,1003.35
2019-05-23T05:40:38.960Z,1003.37
2019-05-23T05:41:38.912Z,1003.36
2019-05-23T05:42:38.890Z,1003.36
2019-05-23T05:43:38.925Z,1003.37
2019-05-23T05:44:38.893Z,1003.42
2019-05-23T05:45:38.856Z,1003.42
2019-05-23T05:46:38.838Z,1003.42
2019-05-23T05:47:38.865Z,1003.41
2019-05-23T05:48:38.881Z,1003.42
2019-05-23T05:49:42.084Z,1003.44
2019-05-23T05:50:38.828Z,1003.44
2019-05-23T05:51:38.836Z,1003.45
2019-05-23T05:52:38.797Z,1003.46
2019-05-23T05:53:38.777Z,1003.42
2019-05-23T05:54:38.775Z,1003.39
2019-05-23T05:55:38.800Z,1003.43
2019-05-23T05:56:38.757Z,1003.48
2019-05-23T05:57:38.780Z,1003.40
2019-05-23T05:58:38.733Z,1003.46
2019-05-23T05:59:38.709Z,1003.46
2019-05-23T06:00:38.883Z,1003.51
2019-05-23T06:01:38.685Z,1003.51
2019-05-23T06:02:38.698Z,1003.52
2019-05-23T06:03:38.683Z,1003.49
2019-05-23T06:04:38.707Z,1003.53
2019-05-23T06:05:38.655Z,1003.50
2019-05-23T06:06:38.666Z,1003.50
2019-05-23T06:07:38.663Z,1003.55
2019-05-23T06:08:38.637Z,1003.52
2019-05-23T06:09:38.638Z,1003.55
2019-05-23T06:10:38.618Z,1003.53
2019-05-23T06:11:38.572Z,1003.53
2019-05-23T06:12:38.657Z,1003.52
2019-05-23T06:13:38.539Z,1003.53
2019-05-23T06:14:38.556Z,1003.50
2019-05-23T06:15:38.561Z,1003.52
2019-05-23T06:16:38.533Z,1003.54
2019-05-23T06:17:38.577Z,1003.55
2019-05-23T06:18:38.507Z,1003.51
2019-05-23T06:19:38.489Z,1003.57
2019-05-23T06:20:40.722Z,1003.58
2019-05-23T06:21:38.477Z,1003.55
2019-05-23T06:22:38.457Z,1003.58
2019-05-23T06:23:38.499Z,1003.52
2019-05-23T06:24:47.246Z,1003.52
2019-05-23T06:25:39.435Z,1003.51
2019-05-23T06:26:38.407Z,1003.54
2019-05-23T06:27:38.450Z,1003.52
2019-05-23T06:28:38.393Z,1003.55
2019-05-23T06:29:38.417Z,1003.54
2019-05-23T06:30:38.377Z,1003.53
2019-05-23T06:31:38.386Z,1003.56
2019-05-23T06:32:38.385Z,1003.55
2019-05-23T06:33:38.362Z,1003.55
2019-05-23T06:34:38.387Z,1003.53
2019-05-23T06:35:38.334Z,1003.51
2019-05-23T06:36:38.309Z,1003.53
2019-05-23T06:37:38.334Z,1003.53
2019-05-23T06:38:38.287Z,1003.50
2019-05-23T06:39:38.290Z,1003.55
2019-05-23T06:40:38.317Z,1003.48
2019-05-23T06:41:38.263Z,1003.50
2019-05-23T06:42:38.265Z,1003.52
2019-05-23T06:43:38.294Z,1003.52
2019-05-23T06:44:38.245Z,1003.57
2019-05-23T06:45:38.236Z,1003.59
2019-05-23T06:46:38.273Z,1003.57
2019-05-23T06:47:38.183Z,1003.54
2019-05-23T06:48:38.159Z,1003.57
2019-05-23T06:49:38.199Z,1003.59
2019-05-23T06:50:38.156Z,1003.56
2019-05-23T06:51:38.183Z,1003.55
2019-05-23T06:52:38.163Z,1003.56
2019-05-23T06:53:38.122Z,1003.59
2019-05-23T06:54:38.116Z,1003.58
2019-05-23T06:55:38.199Z,1003.59
2019-05-23T06:56:38.095Z,1003.59
2019-05-23T06:57:38.110Z,1003.61
2019-05-23T06:58:38.101Z,1003.58
2019-05-23T06:59:38.065Z,1003.60
2019-05-23T07:00:38.098Z,1003.59
2019-05-23T07:01:38.062Z,1003.61
2019-05-23T07:02:38.146Z,1003.61
2019-05-23T07:03:42.909Z,1003.64
2019-05-23T07:04:39.029Z,1003.60
2019-05-23T07:05:37.987Z,1003.59
2019-05-23T07:06:37.983Z,1003.58
2019-05-23T07:07:38.065Z,1003.62
2019-05-23T07:08:37.975Z,1003.61
2019-05-23T07:09:37.973Z,1003.62
2019-05-23T07:10:37.932Z,1003.62
2019-05-23T07:11:38.020Z,1003.61
2019-05-23T07:12:37.927Z,1003.60
2019-05-23T07:13:37.922Z,1003.59
2019-05-23T07:14:37.936Z,1003.55
2019-05-23T07:15:37.905Z,1003.58
2019-05-23T07:16:37.884Z,1003.54
2019-05-23T07:17:37.874Z,1003.58
2019-05-23T07:18:37.873Z,1003.54
2019-05-23T07:19:37.848Z,1003.52
2019-05-23T07:20:37.836Z,1003.53
2019-05-23T07:21:37.839Z,1003.51
2019-05-23T07:22:37.825Z,1003.55
2019-05-23T07:23:37.990Z,1003.50
2019-05-23T07:24:37.821Z,1003.57
2019-05-23T07:25:37.803Z,1003.62
2019-05-23T07:26:37.780Z,1003.57
2019-05-23T07:27:37.765Z,1003.62
2019-05-23T07:28:37.798Z,1003.56
2019-05-23T07:29:37.824Z,1003.61
2019-05-23T07:30:37.739Z,1003.59
2019-05-23T07:31:37.726Z,1003.57
2019-05-23T07:32:37.856Z,1003.59
2019-05-23T07:33:37.725Z,1003.59
2019-05-23T07:34:37.719Z,1003.58
2019-05-23T07:35:37.666Z,1003.61
2019-05-23T07:36:37.666Z,1003.63
2019-05-23T07:37:37.677Z,1003.57
2019-05-23T07:38:37.681Z,1003.58
2019-05-23T07:39:37.647Z,1003.55
2019-05-23T07:40:37.654Z,1003.56
2019-05-23T07:41:37.602Z,1003.57
2019-05-23T07:42:37.582Z,1003.60
2019-05-23T07:43:37.578Z,1003.62
2019-05-23T07:44:48.053Z,1003.55
2019-05-23T07:45:39.842Z,1003.59
2019-05-23T07:46:37.592Z,1003.60
2019-05-23T07:47:40.061Z,1003.62
2019-05-23T07:48:37.531Z,1003.60
2019-05-23T07:49:37.556Z,1003.57
2019-05-23T07:50:37.525Z,1003.57
2019-05-23T07:51:37.524Z,1003.57
2019-05-23T07:52:37.540Z,1003.56
2019-05-23T07:53:37.561Z,1003.57
2019-05-23T07:54:37.479Z,1003.57
2019-05-23T07:55:37.474Z,1003.61
2019-05-23T07:56:37.485Z,1003.59
2019-05-23T07:57:37.435Z,1003.59
2019-05-23T07:58:37.434Z,1003.57
2019-05-23T07:59:37.415Z,1003.55
2019-05-23T08:00:37.412Z,1003.53
2019-05-23T08:01:37.403Z,1003.53
2019-05-23T08:02:37.449Z,1003.51
2019-05-23T08:03:37.365Z,1003.51
2019-05-23T08:04:37.367Z,1003.57
2019-05-23T08:05:37.394Z,1003.48
2019-05-23T08:06:37.366Z,1003.51
2019-05-23T08:07:37.333Z,1003.55
2019-05-23T08:08:37.349Z,1003.53
2019-05-23T08:09:37.308Z,1003.52
2019-05-23T08:10:37.317Z,1003.52
2019-05-23T08:11:37.280Z,1003.52
2019-05-23T08:12:37.307Z,1003.55
2019-05-23T08:13:37.273Z,1003.52
2019-05-23T08:14:37.324Z,1003.63
2019-05-23T08:15:37.253Z,1003.76
2019-05-23T08:16:37.255Z,1003.78
2019-05-23T08:17:37.218Z,1003.83
2019-05-23T08:18:37.261Z,1003.84
2019-05-23T08:19:48.917Z,1003.93
2019-05-23T08:20:38.203Z,1003.97
2019-05-23T08:21:37.206Z,1004.00
2019-05-23T08:22:37.183Z,1003.97
2019-05-23T08:23:37.169Z,1004.00
2019-05-23T08:24:37.161Z,1004.00
2019-05-23T08:25:37.158Z,1004.00
2019-05-23T08:26:37.120Z,1004.06
2019-05-23T08:27:37.119Z,1004.08
2019-05-23T08:28:37.139Z,1004.08
2019-05-23T08:29:38.088Z,1004.14
2019-05-23T08:30:37.082Z,1004.11
2019-05-23T08:31:37.098Z,1004.16
2019-05-23T08:32:37.165Z,1004.15
2019-05-23T08:33:37.031Z,1004.16
2019-05-23T08:34:42.144Z,1004.21
2019-05-23T08:35:38.033Z,1004.18
2019-05-23T08:36:37.031Z,1004.20
2019-05-23T08:37:37.027Z,1004.20
2019-05-23T08:38:36.984Z,1004.17
2019-05-23T08:39:37.036Z,1004.20
2019-05-23T08:40:36.982Z,1004.20
2019-05-23T08:41:36.983Z,1004.22
2019-05-23T08:42:36.963Z,1004.21
2019-05-23T08:43:36.935Z,1004.16
2019-05-23T08:44:36.938Z,1004.21
2019-05-23T08:45:37.059Z,1004.17
2019-05-23T08:46:36.906Z,1004.15
2019-05-23T08:47:36.911Z,1004.14
2019-05-23T08:48:36.895Z,1004.16
2019-05-23T08:49:36.925Z,1004.10
2019-05-23T08:50:36.930Z,1004.14
2019-05-23T08:51:36.869Z,1004.08
2019-05-23T08:52:36.856Z,1004.13
2019-05-23T08:53:36.825Z,1004.15
2019-05-23T08:54:36.837Z,1004.12
2019-05-23T08:55:36.824Z,1004.15
2019-05-23T08:56:36.893Z,1004.19
2019-05-23T08:57:36.818Z,1004.20
2019-05-23T08:58:36.799Z,1004.25
2019-05-23T08:59:36.781Z,1004.21
2019-05-23T09:00:36.754Z,1004.28
2019-05-23T09:01:37.348Z,1004.27
2019-05-23T09:02:36.748Z,1004.26
2019-05-23T09:03:36.754Z,1004.27
2019-05-23T09:04:36.727Z,1004.30
2019-05-23T09:05:36.725Z,1004.20
2019-05-23T09:06:36.729Z,1004.15
2019-05-23T09:07:36.686Z,1004.21
2019-05-23T09:08:36.711Z,1004.19
2019-05-23T09:09:36.668Z,1004.21
2019-05-23T09:10:36.654Z,1004.27
2019-05-23T09:11:36.678Z,1004.27
2019-05-23T09:12:36.679Z,1004.29
2019-05-23T09:13:36.628Z,1004.33
2019-05-23T09:14:36.618Z,1004.27
2019-05-23T09:15:36.618Z,1004.30
2019-05-23T09:16:36.611Z,1004.32
2019-05-23T09:17:54.635Z,1004.24
2019-05-23T09:18:36.566Z,1003.85
2019-05-23T09:19:36.599Z,1004.15
2019-05-23T09:20:36.567Z,1004.21
2019-05-23T09:21:36.583Z,1004.24
2019-05-23T09:22:36.563Z,1004.23
2019-05-23T09:23:36.560Z,1004.24
2019-05-23T09:24:36.577Z,1004.26
2019-05-23T09:25:36.513Z,1004.27
2019-05-23T09:26:36.488Z,1004.27
2019-05-23T09:27:36.490Z,1004.30
2019-05-23T09:28:36.493Z,1004.31
2019-05-23T09:29:36.481Z,1004.31
2019-05-23T09:30:36.468Z,1004.31
2019-05-23T09:31:36.448Z,1004.26
2019-05-23T09:32:36.446Z,1003.96
2019-05-23T09:33:36.463Z,1004.16
2019-05-23T09:34:36.463Z,1004.29
2019-05-23T09:35:36.430Z,1004.27
2019-05-23T09:36:36.421Z,1004.29
2019-05-23T09:37:36.395Z,1004.28
2019-05-23T09:38:36.426Z,1004.30
2019-05-23T09:39:36.379Z,1004.31
2019-05-23T09:40:36.410Z,1004.29
2019-05-23T09:41:36.386Z,1004.23
2019-05-23T09:42:36.363Z,1004.26
2019-05-23T09:43:36.322Z,1004.27
2019-05-23T09:44:36.345Z,1004.30
2019-05-23T09:45:36.301Z,1004.33
2019-05-23T09:46:36.293Z,1004.33
2019-05-23T09:47:36.308Z,1003.76
2019-05-23T09:48:36.275Z,1004.25
2019-05-23T09:49:36.267Z,1004.26
2019-05-23T09:50:36.274Z,1004.21
2019-05-23T09:51:36.253Z,1004.30
2019-05-23T09:52:36.249Z,1004.26
2019-05-23T09:53:36.255Z,1004.32
2019-05-23T09:54:36.244Z,1004.23
2019-05-23T09:55:36.209Z,1004.22
2019-05-23T09:56:36.177Z,1004.27
2019-05-23T09:57:36.172Z,1004.25
2019-05-23T09:58:36.173Z,1004.20
2019-05-23T09:59:36.199Z,1004.22
2019-05-23T10:00:36.188Z,1004.21
2019-05-23T10:01:36.166Z,1004.20
2019-05-23T10:02:36.138Z,1004.12
2019-05-23T10:03:36.136Z,1004.07
2019-05-23T10:04:36.113Z,1003.75
2019-05-23T10:05:43.449Z,1004.11
2019-05-23T10:06:37.076Z,1004.04
2019-05-23T10:07:36.079Z,1004.03
2019-05-23T10:08:36.075Z,1003.94
2019-05-23T10:09:36.084Z,1004.06
2019-05-23T10:10:36.069Z,1003.85
2019-05-23T10:11:36.065Z,1003.63
2019-05-23T10:12:36.061Z,1003.46
2019-05-23T10:13:39.418Z,1003.46
2019-05-23T10:14:35.992Z,1003.58
2019-05-23T10:15:36.003Z,1003.49
2019-05-23T10:16:36.007Z,1003.41
2019-05-23T10:17:35.990Z,1003.37
2019-05-23T10:18:35.959Z,1003.38
2019-05-23T10:19:35.947Z,1003.29
2019-05-23T10:20:35.946Z,1003.29
2019-05-23T10:21:35.984Z,1003.31
2019-05-23T10:22:35.921Z,1003.29
2019-05-23T10:23:35.922Z,1003.25
2019-05-23T10:24:35.969Z,1003.25
2019-05-23T10:25:35.920Z,1003.25
2019-05-23T10:26:35.883Z,1003.23
2019-05-23T10:27:35.896Z,1003.16
2019-05-23T10:28:35.862Z,1003.24
2019-05-23T10:29:35.847Z,1003.29
2019-05-23T10:30:35.880Z,1003.26
2019-05-23T10:31:35.819Z,1003.26
2019-05-23T10:32:35.842Z,1003.25
2019-05-23T10:33:35.800Z,1003.22
2019-05-23T10:34:35.801Z,1003.13
2019-05-23T10:35:35.790Z,1003.20
2019-05-23T10:36:35.800Z,1003.15
2019-05-23T10:37:35.779Z,1003.20
2019-05-23T10:38:36.227Z,1003.16
2019-05-23T10:39:35.778Z,1003.16
2019-05-23T10:40:35.741Z,1003.13
2019-05-23T10:41:35.770Z,1003.09
2019-05-23T10:42:35.745Z,1003.04
2019-05-23T10:43:35.719Z,1003.10
2019-05-23T10:44:35.686Z,1003.11
2019-05-23T10:45:35.695Z,1003.07
2019-05-23T10:46:35.689Z,1003.18
2019-05-23T10:47:35.669Z,1003.22
2019-05-23T10:48:35.674Z,1003.37
2019-05-23T10:49:35.680Z,1003.45
2019-05-23T10:50:44.147Z,1003.09
2019-05-23T10:51:36.643Z,1002.99
2019-05-23T10:52:35.591Z,1002.94
2019-05-23T10:53:35.599Z,1003.01
2019-05-23T10:54:35.599Z,1002.98
2019-05-23T10:55:35.582Z,1002.91
2019-05-23T10:57:04.735Z,1002.96
2019-05-23T10:57:42.447Z,1003.04
2019-05-23T10:58:36.698Z,1003.53
2019-05-23T10:59:35.572Z,1002.98
2019-05-23T11:00:35.524Z,1003.39
2019-05-23T11:01:35.523Z,1003.55
2019-05-23T11:02:35.512Z,1003.04
2019-05-23T11:03:35.489Z,1002.96
2019-05-23T11:04:35.489Z,1003.48
2019-05-23T11:05:35.477Z,1002.97
2019-05-23T11:06:35.447Z,1003.03
2019-05-23T11:07:35.471Z,1003.48
2019-05-23T11:08:35.433Z,1003.54
2019-05-23T11:09:38.204Z,1003.51
2019-05-23T11:10:35.443Z,1003.42
2019-05-23T11:11:35.432Z,1003.46
2019-05-23T11:12:35.399Z,1003.45
2019-05-23T11:13:35.399Z,1003.55
2019-05-23T11:14:35.441Z,1003.52
2019-05-23T11:15:35.379Z,1003.63
2019-05-23T11:16:35.357Z,1003.59
2019-05-23T11:17:35.387Z,1003.67
2019-05-23T11:18:35.351Z,1003.73
2019-05-23T11:19:35.593Z,1003.49
2019-05-23T11:20:36.162Z,1003.23
2019-05-23T11:21:35.299Z,1002.95
2019-05-23T11:22:35.293Z,1003.43
2019-05-23T11:23:35.316Z,1003.47
2019-05-23T11:24:35.278Z,1003.50
2019-05-23T11:25:35.273Z,1003.51
2019-05-23T11:26:35.275Z,1003.55
2019-05-23T11:27:35.233Z,1003.53
2019-05-23T11:28:35.259Z,1003.51
2019-05-23T11:29:35.213Z,1003.51
2019-05-23T11:30:35.224Z,1003.60
2019-05-23T11:31:35.299Z,1003.62
2019-05-23T11:32:35.196Z,1003.55
2019-05-23T11:33:35.196Z,1003.53
2019-05-23T11:34:35.174Z,1003.46
2019-05-23T11:35:35.197Z,1003.52
2019-05-23T11:36:36.705Z,1003.52
2019-05-23T11:37:35.186Z,1003.49
2019-05-23T11:38:35.134Z,1003.36
2019-05-23T11:39:42.102Z,1003.44
2019-05-23T11:40:36.109Z,1003.55
2019-05-23T11:41:35.121Z,1003.54
2019-05-23T11:42:35.147Z,1003.55
2019-05-23T11:43:35.087Z,1003.44
2019-05-23T11:44:35.097Z,1003.45
2019-05-23T11:45:35.103Z,1003.51
2019-05-23T11:46:35.051Z,1003.49
2019-05-23T11:47:35.073Z,1003.46
2019-05-23T11:48:35.041Z,1003.41
2019-05-23T11:49:35.025Z,1003.38
2019-05-23T11:50:35.018Z,1003.33
2019-05-23T11:51:35.000Z,1003.35
2019-05-23T11:52:35.010Z,1003.26
2019-05-23T11:53:35.011Z,1003.31
2019-05-23T11:54:34.981Z,1003.30
2019-05-23T11:55:34.973Z,1003.37
2019-05-23T11:56:34.988Z,1002.84
2019-05-23T11:57:37.565Z,1002.79
2019-05-23T11:58:34.990Z,1003.02
2019-05-23T11:59:34.944Z,1003.02
2019-05-23T12:00:34.920Z,1003.01
2019-05-23T12:01:34.919Z,1003.09
2019-05-23T12:02:34.912Z,1003.12
2019-05-23T12:03:34.905Z,1003.19
2019-05-23T12:04:34.892Z,1003.20
2019-05-23T12:05:34.876Z,1003.11